sensor_id;sensor_type;location;lat;lon;timestamp;P1;durP1;ratioP1;P2;durP2;ratioP2
48361;SDS011;34510;51.888;5.670;2023-05-07T00:03:09;877.63;;;784.80;;
48361;SDS011;34510;51.888;5.670;2023-05-07T00:08:13;878.00;;;785.40;;
48361;SDS011;34510;51.888;5.670;2023-05-07T00:13:16;879.78;;;787.00;;
48361;SDS011;34510;51.888;5.670;2023-05-07T00:18:19;863.38;;;771.28;;
48361;SDS011;34510;51.888;5.670;2023-05-07T00:23:24;860.25;;;768.60;;
48361;SDS011;34510;51.888;5.670;2023-05-07T00:28:26;868.63;;;776.25;;
48361;SDS011;34510;51.888;5.670;2023-05-07T00:33:28;861.45;;;769.72;;
48361;SDS011;34510;51.888;5.670;2023-05-07T00:38:30;875.17;;;782.17;;
48361;SDS011;34510;51.888;5.670;2023-05-07T00:43:34;867.72;;;775.45;;
48361;SDS011;34510;51.888;5.670;2023-05-07T00:48:35;859.88;;;768.05;;
48361;SDS011;34510;51.888;5.670;2023-05-07T00:53:45;859.25;;;767.65;;
48361;SDS011;34510;51.888;5.670;2023-05-07T00:58:49;878.63;;;785.83;;
48361;SDS011;34510;51.888;5.670;2023-05-07T01:03:51;878.00;;;785.60;;
48361;SDS011;34510;51.888;5.670;2023-05-07T01:08:56;867.33;;;776.13;;
48361;SDS011;34510;51.888;5.670;2023-05-07T01:13:59;864.42;;;772.72;;
48361;SDS011;34510;51.888;5.670;2023-05-07T01:19:02;858.60;;;767.33;;
48361;SDS011;34510;51.888;5.670;2023-05-07T01:24:05;866.05;;;774.80;;
48361;SDS011;34510;51.888;5.670;2023-05-07T01:29:15;875.80;;;783.85;;
48361;SDS011;34510;51.888;5.670;2023-05-07T01:34:18;884.47;;;791.55;;
48361;SDS011;34510;51.888;5.670;2023-05-07T01:39:24;879.15;;;787.03;;
48361;SDS011;34510;51.888;5.670;2023-05-07T01:44:27;862.05;;;769.92;;
48361;SDS011;34510;51.888;5.670;2023-05-07T01:49:30;878.15;;;785.63;;
48361;SDS011;34510;51.888;5.670;2023-05-07T01:54:32;878.10;;;785.90;;
48361;SDS011;34510;51.888;5.670;2023-05-07T01:59:34;873.17;;;780.83;;
48361;SDS011;34510;51.888;5.670;2023-05-07T02:04:37;869.60;;;777.28;;
48361;SDS011;34510;51.888;5.670;2023-05-07T02:09:39;888.38;;;795.58;;
48361;SDS011;34510;51.888;5.670;2023-05-07T02:14:42;882.13;;;789.13;;
48361;SDS011;34510;51.888;5.670;2023-05-07T02:19:48;869.60;;;776.57;;
48361;SDS011;34510;51.888;5.670;2023-05-07T02:24:50;880.63;;;787.00;;
48361;SDS011;34510;51.888;5.670;2023-05-07T02:29:52;851.92;;;759.33;;
48361;SDS011;34510;51.888;5.670;2023-05-07T02:34:54;859.40;;;766.45;;
48361;SDS011;34510;51.888;5.670;2023-05-07T02:39:56;875.17;;;781.63;;
48361;SDS011;34510;51.888;5.670;2023-05-07T02:45:20;856.40;;;763.60;;
48361;SDS011;34510;51.888;5.670;2023-05-07T02:50:26;856.95;;;764.38;;
48361;SDS011;34510;51.888;5.670;2023-05-07T02:55:29;842.40;;;750.17;;
48361;SDS011;34510;51.888;5.670;2023-05-07T03:00:33;855.13;;;762.50;;
48361;SDS011;34510;51.888;5.670;2023-05-07T03:05:56;848.78;;;756.03;;
48361;SDS011;34510;51.888;5.670;2023-05-07T03:11:00;854.78;;;761.75;;
48361;SDS011;34510;51.888;5.670;2023-05-07T03:16:02;856.70;;;763.90;;
48361;SDS011;34510;51.888;5.670;2023-05-07T03:21:05;857.15;;;764.33;;
48361;SDS011;34510;51.888;5.670;2023-05-07T03:26:08;865.13;;;772.00;;
48361;SDS011;34510;51.888;5.670;2023-05-07T03:31:17;861.45;;;768.92;;
48361;SDS011;34510;51.888;5.670;2023-05-07T03:36:20;848.35;;;755.65;;
48361;SDS011;34510;51.888;5.670;2023-05-07T03:41:23;850.42;;;758.50;;
48361;SDS011;34510;51.888;5.670;2023-05-07T03:46:25;836.10;;;744.60;;
48361;SDS011;34510;51.888;5.670;2023-05-07T03:51:35;856.92;;;765.08;;
48361;SDS011;34510;51.888;5.670;2023-05-07T03:56:40;847.20;;;755.38;;
48361;SDS011;34510;51.888;5.670;2023-05-07T04:01:44;841.72;;;750.28;;
48361;SDS011;34510;51.888;5.670;2023-05-07T04:06:51;856.03;;;763.75;;
48361;SDS011;34510;51.888;5.670;2023-05-07T04:12:02;849.15;;;757.20;;
48361;SDS011;34510;51.888;5.670;2023-05-07T04:17:06;849.60;;;757.17;;
48361;SDS011;34510;51.888;5.670;2023-05-07T04:22:09;845.70;;;754.05;;
48361;SDS011;34510;51.888;5.670;2023-05-07T04:27:12;847.72;;;755.65;;
48361;SDS011;34510;51.888;5.670;2023-05-07T04:32:14;847.50;;;755.80;;
48361;SDS011;34510;51.888;5.670;2023-05-07T04:37:20;858.92;;;766.15;;
48361;SDS011;34510;51.888;5.670;2023-05-07T04:42:25;846.10;;;753.63;;
48361;SDS011;34510;51.888;5.670;2023-05-07T04:47:29;859.03;;;765.92;;
48361;SDS011;34510;51.888;5.670;2023-05-07T04:52:32;824.80;;;731.25;;
48361;SDS011;34510;51.888;5.670;2023-05-07T04:57:39;846.33;;;753.78;;
48361;SDS011;34510;51.888;5.670;2023-05-07T05:02:45;841.13;;;748.80;;
48361;SDS011;34510;51.888;5.670;2023-05-07T05:07:51;839.50;;;747.57;;
48361;SDS011;34510;51.888;5.670;2023-05-07T05:12:56;846.83;;;754.33;;
48361;SDS011;34510;51.888;5.670;2023-05-07T05:18:06;840.10;;;747.83;;
48361;SDS011;34510;51.888;5.670;2023-05-07T05:23:13;848.45;;;755.95;;
48361;SDS011;34510;51.888;5.670;2023-05-07T05:28:15;837.85;;;745.70;;
48361;SDS011;34510;51.888;5.670;2023-05-07T05:33:17;849.72;;;756.88;;
48361;SDS011;34510;51.888;5.670;2023-05-07T05:38:27;862.00;;;769.53;;
48361;SDS011;34510;51.888;5.670;2023-05-07T05:43:30;860.60;;;768.13;;
48361;SDS011;34510;51.888;5.670;2023-05-07T05:48:33;864.85;;;772.28;;
48361;SDS011;34510;51.888;5.670;2023-05-07T05:53:37;866.75;;;774.53;;
48361;SDS011;34510;51.888;5.670;2023-05-07T05:58:48;857.17;;;765.47;;
48361;SDS011;34510;51.888;5.670;2023-05-07T06:03:50;855.35;;;763.20;;
48361;SDS011;34510;51.888;5.670;2023-05-07T06:08:53;855.30;;;762.85;;
48361;SDS011;34510;51.888;5.670;2023-05-07T06:14:02;885.60;;;791.70;;
48361;SDS011;34510;51.888;5.670;2023-05-07T06:19:05;875.85;;;782.00;;
48361;SDS011;34510;51.888;5.670;2023-05-07T06:24:07;857.45;;;765.03;;
48361;SDS011;34510;51.888;5.670;2023-05-07T06:29:12;864.35;;;771.47;;
48361;SDS011;34510;51.888;5.670;2023-05-07T06:34:16;865.47;;;772.13;;
48361;SDS011;34510;51.888;5.670;2023-05-07T06:39:20;884.55;;;790.90;;
48361;SDS011;34510;51.888;5.670;2023-05-07T06:44:22;876.95;;;782.85;;
48361;SDS011;34510;51.888;5.670;2023-05-07T06:49:43;889.35;;;795.55;;
48361;SDS011;34510;51.888;5.670;2023-05-07T06:54:48;880.40;;;786.72;;
48361;SDS011;34510;51.888;5.670;2023-05-07T06:59:53;886.50;;;793.70;;
48361;SDS011;34510;51.888;5.670;2023-05-07T07:04:55;904.33;;;810.63;;
48361;SDS011;34510;51.888;5.670;2023-05-07T07:09:58;900.63;;;807.05;;
48361;SDS011;34510;51.888;5.670;2023-05-07T07:15:03;903.97;;;810.20;;
48361;SDS011;34510;51.888;5.670;2023-05-07T07:20:07;894.17;;;801.47;;
48361;SDS011;34510;51.888;5.670;2023-05-07T07:25:13;903.42;;;809.72;;
48361;SDS011;34510;51.888;5.670;2023-05-07T07:30:15;912.10;;;818.63;;
48361;SDS011;34510;51.888;5.670;2023-05-07T07:35:22;905.08;;;811.55;;
48361;SDS011;34510;51.888;5.670;2023-05-07T07:40:34;899.50;;;806.05;;
48361;SDS011;34510;51.888;5.670;2023-05-07T07:45:37;925.47;;;830.88;;
48361;SDS011;34510;51.888;5.670;2023-05-07T07:50:43;921.22;;;825.97;;
48361;SDS011;34510;51.888;5.670;2023-05-07T07:55:49;914.58;;;820.20;;
48361;SDS011;34510;51.888;5.670;2023-05-07T08:00:54;927.20;;;831.95;;
48361;SDS011;34510;51.888;5.670;2023-05-07T08:05:58;925.35;;;830.58;;
48361;SDS011;34510;51.888;5.670;2023-05-07T08:11:01;923.22;;;828.45;;
48361;SDS011;34510;51.888;5.670;2023-05-07T08:16:09;928.97;;;834.13;;
48361;SDS011;34510;51.888;5.670;2023-05-07T08:21:12;934.22;;;839.92;;
48361;SDS011;34510;51.888;5.670;2023-05-07T08:26:14;949.17;;;854.33;;
48361;SDS011;34510;51.888;5.670;2023-05-07T08:31:18;950.30;;;854.65;;
48361;SDS011;34510;51.888;5.670;2023-05-07T08:36:24;948.93;;;853.93;;
48361;SDS011;34510;51.888;5.670;2023-05-07T08:41:28;953.67;;;858.40;;
48361;SDS011;34510;51.888;5.670;2023-05-07T08:46:31;962.85;;;866.95;;
48361;SDS011;34510;51.888;5.670;2023-05-07T08:51:36;969.75;;;873.85;;
48361;SDS011;34510;51.888;5.670;2023-05-07T08:56:39;970.90;;;875.22;;
48361;SDS011;34510;51.888;5.670;2023-05-07T09:01:43;984.63;;;887.63;;
48361;SDS011;34510;51.888;5.670;2023-05-07T09:06:47;994.40;;;897.53;;
48361;SDS011;34510;51.888;5.670;2023-05-07T09:11:56;1006.30;;;908.75;;
48361;SDS011;34510;51.888;5.670;2023-05-07T09:17:06;1016.33;;;918.30;;
48361;SDS011;34510;51.888;5.670;2023-05-07T09:22:15;1025.05;;;926.58;;
48361;SDS011;34510;51.888;5.670;2023-05-07T09:27:27;1028.95;;;930.05;;
48361;SDS011;34510;51.888;5.670;2023-05-07T09:32:34;1041.85;;;942.38;;
48361;SDS011;34510;51.888;5.670;2023-05-07T09:37:46;1049.40;;;950.00;;
48361;SDS011;34510;51.888;5.670;2023-05-07T09:42:49;1057.80;;;958.03;;
48361;SDS011;34510;51.888;5.670;2023-05-07T09:47:55;1056.63;;;957.13;;
48361;SDS011;34510;51.888;5.670;2023-05-07T09:53:03;1049.63;;;950.83;;
48361;SDS011;34510;51.888;5.670;2023-05-07T09:58:06;1060.93;;;961.03;;
48361;SDS011;34510;51.888;5.670;2023-05-07T10:03:10;1057.90;;;958.42;;
48361;SDS011;34510;51.888;5.670;2023-05-07T10:08:33;1073.47;;;973.22;;
48361;SDS011;34510;51.888;5.670;2023-05-07T10:13:37;1072.82;;;972.42;;
48361;SDS011;34510;51.888;5.670;2023-05-07T10:18:43;1072.28;;;971.97;;
48361;SDS011;34510;51.888;5.670;2023-05-07T10:24:04;1082.57;;;981.20;;
48361;SDS011;34510;51.888;5.670;2023-05-07T10:29:53;1083.57;;;982.72;;
48361;SDS011;34510;51.888;5.670;2023-05-07T10:34:40;1104.57;;;998.90;;
48361;SDS011;34510;51.888;5.670;2023-05-07T10:39:45;1097.97;;;996.07;;
48361;SDS011;34510;51.888;5.670;2023-05-07T10:44:48;1102.95;;;998.20;;
48361;SDS011;34510;51.888;5.670;2023-05-07T11:05:45;1125.68;;;999.90;;
48361;SDS011;34510;51.888;5.670;2023-05-07T11:11:00;1118.70;;;999.90;;
48361;SDS011;34510;51.888;5.670;2023-05-07T11:16:26;1123.50;;;999.90;;
48361;SDS011;34510;51.888;5.670;2023-05-07T11:21:39;1131.00;;;999.90;;
48361;SDS011;34510;51.888;5.670;2023-05-07T11:26:53;1124.75;;;999.90;;
48361;SDS011;34510;51.888;5.670;2023-05-07T11:31:56;1117.07;;;999.90;;
48361;SDS011;34510;51.888;5.670;2023-05-07T11:37:04;1133.05;;;999.90;;
48361;SDS011;34510;51.888;5.670;2023-05-07T11:42:31;1122.82;;;999.90;;
48361;SDS011;34510;51.888;5.670;2023-05-07T11:47:36;1128.78;;;999.90;;
48361;SDS011;34510;51.888;5.670;2023-05-07T11:52:49;1122.40;;;999.90;;
48361;SDS011;34510;51.888;5.670;2023-05-07T11:57:57;1129.43;;;999.90;;
48361;SDS011;34510;51.888;5.670;2023-05-07T12:03:04;1120.55;;;999.90;;
48361;SDS011;34510;51.888;5.670;2023-05-07T12:08:07;1116.22;;;999.90;;
48361;SDS011;34510;51.888;5.670;2023-05-07T12:18:17;1119.78;;;999.90;;
48361;SDS011;34510;51.888;5.670;2023-05-07T12:23:24;1124.57;;;999.90;;
48361;SDS011;34510;51.888;5.670;2023-05-07T12:28:27;1130.25;;;999.90;;
48361;SDS011;34510;51.888;5.670;2023-05-07T12:33:29;1132.75;;;999.90;;
48361;SDS011;34510;51.888;5.670;2023-05-07T12:38:39;1137.15;;;999.90;;
48361;SDS011;34510;51.888;5.670;2023-05-07T12:43:44;1127.50;;;999.90;;
48361;SDS011;34510;51.888;5.670;2023-05-07T12:48:47;1132.50;;;999.90;;
48361;SDS011;34510;51.888;5.670;2023-05-07T12:53:55;1131.97;;;999.90;;
48361;SDS011;34510;51.888;5.670;2023-05-07T12:59:00;1138.72;;;999.90;;
48361;SDS011;34510;51.888;5.670;2023-05-07T13:04:03;1134.15;;;999.90;;
48361;SDS011;34510;51.888;5.670;2023-05-07T13:09:05;1131.65;;;999.90;;
48361;SDS011;34510;51.888;5.670;2023-05-07T13:14:09;1136.70;;;999.90;;
48361;SDS011;34510;51.888;5.670;2023-05-07T13:19:11;1132.80;;;999.90;;
48361;SDS011;34510;51.888;5.670;2023-05-07T13:24:15;1139.15;;;999.90;;
48361;SDS011;34510;51.888;5.670;2023-05-07T13:29:18;1144.90;;;999.90;;
48361;SDS011;34510;51.888;5.670;2023-05-07T13:34:20;1145.63;;;999.90;;
48361;SDS011;34510;51.888;5.670;2023-05-07T13:39:22;1129.68;;;999.90;;
48361;SDS011;34510;51.888;5.670;2023-05-07T13:44:24;1119.47;;;999.90;;
48361;SDS011;34510;51.888;5.670;2023-05-07T13:49:27;1133.63;;;999.90;;
48361;SDS011;34510;51.888;5.670;2023-05-07T13:54:29;1138.80;;;999.90;;
48361;SDS011;34510;51.888;5.670;2023-05-07T13:59:31;1130.30;;;999.90;;
48361;SDS011;34510;51.888;5.670;2023-05-07T14:04:35;1135.95;;;999.90;;
48361;SDS011;34510;51.888;5.670;2023-05-07T14:09:37;1140.72;;;999.90;;
48361;SDS011;34510;51.888;5.670;2023-05-07T14:14:40;1142.30;;;999.90;;
48361;SDS011;34510;51.888;5.670;2023-05-07T14:19:42;1142.07;;;999.90;;
48361;SDS011;34510;51.888;5.670;2023-05-07T14:24:45;1146.80;;;999.90;;
48361;SDS011;34510;51.888;5.670;2023-05-07T14:30:07;1143.50;;;999.90;;
48361;SDS011;34510;51.888;5.670;2023-05-07T14:35:12;1138.93;;;999.90;;
48361;SDS011;34510;51.888;5.670;2023-05-07T14:40:14;1145.63;;;999.90;;
48361;SDS011;34510;51.888;5.670;2023-05-07T14:45:20;1150.55;;;999.90;;
48361;SDS011;34510;51.888;5.670;2023-05-07T14:50:24;1141.80;;;999.90;;
48361;SDS011;34510;51.888;5.670;2023-05-07T14:55:27;1133.97;;;999.90;;
48361;SDS011;34510;51.888;5.670;2023-05-07T15:00:28;1112.43;;;999.90;;
48361;SDS011;34510;51.888;5.670;2023-05-07T15:05:31;1107.63;;;999.65;;
48361;SDS011;34510;51.888;5.670;2023-05-07T15:10:36;1077.35;;;976.88;;
48361;SDS011;34510;51.888;5.670;2023-05-07T15:15:42;1053.38;;;954.58;;
48361;SDS011;34510;51.888;5.670;2023-05-07T15:20:45;1028.13;;;929.75;;
48361;SDS011;34510;51.888;5.670;2023-05-07T15:25:48;1033.97;;;934.70;;
48361;SDS011;34510;51.888;5.670;2023-05-07T15:30:53;1015.38;;;917.78;;
48361;SDS011;34510;51.888;5.670;2023-05-07T15:35:57;1005.03;;;907.50;;
48361;SDS011;34510;51.888;5.670;2023-05-07T15:41:00;988.80;;;891.60;;
48361;SDS011;34510;51.888;5.670;2023-05-07T15:46:02;1001.40;;;903.70;;
48361;SDS011;34510;51.888;5.670;2023-05-07T15:51:05;986.55;;;889.60;;
48361;SDS011;34510;51.888;5.670;2023-05-07T15:56:10;990.90;;;893.78;;
48361;SDS011;34510;51.888;5.670;2023-05-07T16:01:13;990.65;;;893.33;;
48361;SDS011;34510;51.888;5.670;2023-05-07T16:06:18;980.97;;;884.50;;
48361;SDS011;34510;51.888;5.670;2023-05-07T16:11:21;988.80;;;891.88;;
48361;SDS011;34510;51.888;5.670;2023-05-07T16:16:24;995.38;;;898.13;;
48361;SDS011;34510;51.888;5.670;2023-05-07T16:21:30;983.70;;;887.25;;
48361;SDS011;34510;51.888;5.670;2023-05-07T16:26:36;984.13;;;887.13;;
48361;SDS011;34510;51.888;5.670;2023-05-07T16:31:49;983.95;;;886.95;;
48361;SDS011;34510;51.888;5.670;2023-05-07T16:36:51;963.28;;;867.55;;
48361;SDS011;34510;51.888;5.670;2023-05-07T16:41:57;951.63;;;856.33;;
48361;SDS011;34510;51.888;5.670;2023-05-07T16:46:59;973.83;;;877.63;;
48361;SDS011;34510;51.888;5.670;2023-05-07T16:52:01;965.83;;;869.70;;
48361;SDS011;34510;51.888;5.670;2023-05-07T16:57:03;966.92;;;870.85;;
48361;SDS011;34510;51.888;5.670;2023-05-07T17:02:08;968.05;;;870.95;;
48361;SDS011;34510;51.888;5.670;2023-05-07T17:07:10;967.85;;;871.63;;
48361;SDS011;34510;51.888;5.670;2023-05-07T17:12:12;963.42;;;867.03;;
48361;SDS011;34510;51.888;5.670;2023-05-07T17:17:14;966.60;;;870.33;;
48361;SDS011;34510;51.888;5.670;2023-05-07T17:22:16;963.58;;;867.65;;
48361;SDS011;34510;51.888;5.670;2023-05-07T17:27:21;952.78;;;857.35;;
48361;SDS011;34510;51.888;5.670;2023-05-07T17:32:23;950.20;;;854.92;;
48361;SDS011;34510;51.888;5.670;2023-05-07T17:37:40;950.70;;;855.23;;
48361;SDS011;34510;51.888;5.670;2023-05-07T17:42:48;966.47;;;870.40;;
48361;SDS011;34510;51.888;5.670;2023-05-07T17:47:56;969.53;;;873.78;;
48361;SDS011;34510;51.888;5.670;2023-05-07T17:52:59;966.47;;;870.25;;
48361;SDS011;34510;51.888;5.670;2023-05-07T17:58:03;978.10;;;881.38;;
48361;SDS011;34510;51.888;5.670;2023-05-07T18:03:05;973.60;;;876.97;;
48361;SDS011;34510;51.888;5.670;2023-05-07T18:08:08;982.65;;;885.67;;
48361;SDS011;34510;51.888;5.670;2023-05-07T18:13:10;952.17;;;856.75;;
48361;SDS011;34510;51.888;5.670;2023-05-07T18:23:31;959.13;;;863.75;;
48361;SDS011;34510;51.888;5.670;2023-05-07T18:28:37;962.55;;;867.22;;
48361;SDS011;34510;51.888;5.670;2023-05-07T18:33:49;965.38;;;868.90;;
48361;SDS011;34510;51.888;5.670;2023-05-07T18:38:57;966.50;;;870.13;;
48361;SDS011;34510;51.888;5.670;2023-05-07T18:44:14;960.38;;;864.45;;
48361;SDS011;34510;51.888;5.670;2023-05-07T18:49:16;955.15;;;859.67;;
48361;SDS011;34510;51.888;5.670;2023-05-07T18:54:19;951.33;;;856.00;;
48361;SDS011;34510;51.888;5.670;2023-05-07T18:59:22;950.97;;;855.60;;
48361;SDS011;34510;51.888;5.670;2023-05-07T19:04:24;957.90;;;862.03;;
48361;SDS011;34510;51.888;5.670;2023-05-07T19:09:26;958.70;;;862.67;;
48361;SDS011;34510;51.888;5.670;2023-05-07T19:14:30;963.55;;;867.22;;
48361;SDS011;34510;51.888;5.670;2023-05-07T19:19:33;951.55;;;855.50;;
48361;SDS011;34510;51.888;5.670;2023-05-07T19:24:37;962.10;;;865.10;;
48361;SDS011;34510;51.888;5.670;2023-05-07T19:29:41;963.50;;;866.40;;
48361;SDS011;34510;51.888;5.670;2023-05-07T19:34:43;947.38;;;851.60;;
48361;SDS011;34510;51.888;5.670;2023-05-07T19:39:45;938.97;;;843.70;;
48361;SDS011;34510;51.888;5.670;2023-05-07T19:44:48;958.63;;;862.67;;
48361;SDS011;34510;51.888;5.670;2023-05-07T19:49:50;937.95;;;842.67;;
48361;SDS011;34510;51.888;5.670;2023-05-07T19:54:53;944.28;;;849.05;;
48361;SDS011;34510;51.888;5.670;2023-05-07T20:00:03;944.88;;;849.17;;
48361;SDS011;34510;51.888;5.670;2023-05-07T20:05:27;945.25;;;849.30;;
48361;SDS011;34510;51.888;5.670;2023-05-07T20:10:30;945.55;;;849.75;;
48361;SDS011;34510;51.888;5.670;2023-05-07T20:15:42;945.45;;;849.92;;
48361;SDS011;34510;51.888;5.670;2023-05-07T20:20:45;928.67;;;834.03;;
48361;SDS011;34510;51.888;5.670;2023-05-07T20:25:48;938.40;;;843.22;;
48361;SDS011;34510;51.888;5.670;2023-05-07T20:30:53;947.55;;;851.80;;
48361;SDS011;34510;51.888;5.670;2023-05-07T20:35:58;946.92;;;850.85;;
48361;SDS011;34510;51.888;5.670;2023-05-07T20:41:06;942.55;;;846.83;;
48361;SDS011;34510;51.888;5.670;2023-05-07T20:46:09;932.42;;;837.65;;
48361;SDS011;34510;51.888;5.670;2023-05-07T20:51:11;933.55;;;838.75;;
48361;SDS011;34510;51.888;5.670;2023-05-07T20:56:19;940.03;;;844.47;;
48361;SDS011;34510;51.888;5.670;2023-05-07T21:01:21;929.33;;;834.33;;
48361;SDS011;34510;51.888;5.670;2023-05-07T21:06:24;933.45;;;838.15;;
48361;SDS011;34510;51.888;5.670;2023-05-07T21:11:26;928.10;;;833.45;;
48361;SDS011;34510;51.888;5.670;2023-05-07T21:16:31;938.03;;;842.42;;
48361;SDS011;34510;51.888;5.670;2023-05-07T21:21:34;929.28;;;834.08;;
48361;SDS011;34510;51.888;5.670;2023-05-07T21:26:36;920.92;;;826.47;;
48361;SDS011;34510;51.888;5.670;2023-05-07T21:31:38;936.22;;;840.90;;
48361;SDS011;34510;51.888;5.670;2023-05-07T21:36:43;940.70;;;845.38;;
48361;SDS011;34510;51.888;5.670;2023-05-07T21:41:45;930.25;;;835.28;;
48361;SDS011;34510;51.888;5.670;2023-05-07T21:46:55;937.00;;;841.88;;
48361;SDS011;34510;51.888;5.670;2023-05-07T21:51:58;935.42;;;839.95;;
48361;SDS011;34510;51.888;5.670;2023-05-07T21:57:00;934.97;;;839.63;;
48361;SDS011;34510;51.888;5.670;2023-05-07T22:02:08;940.63;;;845.38;;
48361;SDS011;34510;51.888;5.670;2023-05-07T22:07:13;920.42;;;825.83;;
48361;SDS011;34510;51.888;5.670;2023-05-07T22:12:15;926.83;;;832.50;;
48361;SDS011;34510;51.888;5.670;2023-05-07T22:17:17;918.92;;;824.70;;
48361;SDS011;34510;51.888;5.670;2023-05-07T22:22:19;920.38;;;826.40;;
48361;SDS011;34510;51.888;5.670;2023-05-07T22:27:21;919.35;;;824.97;;
48361;SDS011;34510;51.888;5.670;2023-05-07T22:32:23;913.75;;;819.60;;
48361;SDS011;34510;51.888;5.670;2023-05-07T22:37:31;919.20;;;824.47;;
48361;SDS011;34510;51.888;5.670;2023-05-07T22:42:41;909.60;;;815.70;;
48361;SDS011;34510;51.888;5.670;2023-05-07T22:47:43;931.92;;;837.15;;
48361;SDS011;34510;51.888;5.670;2023-05-07T22:52:45;918.40;;;824.00;;
48361;SDS011;34510;51.888;5.670;2023-05-07T22:57:47;931.53;;;836.75;;
48361;SDS011;34510;51.888;5.670;2023-05-07T23:02:49;920.75;;;826.20;;
48361;SDS011;34510;51.888;5.670;2023-05-07T23:07:51;919.25;;;824.60;;
48361;SDS011;34510;51.888;5.670;2023-05-07T23:12:56;921.28;;;826.38;;
48361;SDS011;34510;51.888;5.670;2023-05-07T23:17:59;920.38;;;825.72;;
48361;SDS011;34510;51.888;5.670;2023-05-07T23:23:02;926.47;;;831.70;;
48361;SDS011;34510;51.888;5.670;2023-05-07T23:28:04;921.00;;;826.17;;
48361;SDS011;34510;51.888;5.670;2023-05-07T23:33:06;921.33;;;826.45;;
48361;SDS011;34510;51.888;5.670;2023-05-07T23:38:08;906.35;;;811.92;;
48361;SDS011;34510;51.888;5.670;2023-05-07T23:43:10;912.53;;;818.30;;
48361;SDS011;34510;51.888;5.670;2023-05-07T23:48:13;918.10;;;823.35;;
48361;SDS011;34510;51.888;5.670;2023-05-07T23:53:16;924.17;;;829.53;;
48361;SDS011;34510;51.888;5.670;2023-05-07T23:58:18;917.95;;;823.45;;
